Time;durP1;ratioP1;P1;durP2;ratioP2;P2;SDS_P1;SDS_P2;PMS_P1;PMS_P2;Temp;Humidity;BMP_temperature;BMP_pressure;BME280_temperature;BME280_humidity;BME280_pressure;Samples;Min_cycle;Max_cycle;Signal;HPM_P1;HPM_P2
2022/03/15 00:02:13;;;;;;;29.53;24.93;;;;;;;;;;6169566;28;20238;-71
2022/03/15 00:05:34;;;;;;;32.73;26.30;;;;;;;;;;6158518;28;20258;-71
2022/03/15 00:08:55;;;;;;;30.23;24.60;;;;;;;;;;6172590;28;20221;-71
2022/03/15 00:12:16;;;;;;;31.83;24.33;;;;;;;;;;6174755;28;20226;-72
2022/03/15 00:15:39;;;;;;;33.37;24.07;;;;;;;;;;6169260;28;20253;-72
2022/03/15 00:19:03;;;;;;;27.97;24.43;;;;;;;;;;6174242;28;20230;-71
2022/03/15 00:22:24;;;;;;;27.83;24.83;;;;;;;;;;6173383;28;20258;-70
2022/03/15 00:25:45;;;;;;;25.77;22.53;;;;;;;;;;6172058;28;20230;-72
2022/03/15 00:29:05;;;;;;;30.47;24.70;;;;;;;;;;6178297;28;20230;-71
2022/03/15 00:32:26;;;;;;;28.27;24.50;;;;;;;;;;6174139;28;20718;-71
2022/03/15 00:35:48;;;;;;;35.00;24.43;;;;;;;;;;6172867;28;20221;-72
2022/03/15 00:39:09;;;;;;;31.27;24.83;;;;;;;;;;6177534;28;20233;-71
2022/03/15 00:42:30;;;;;;;29.50;24.63;;;;;;;;;;6173331;28;20283;-71
2022/03/15 00:45:55;;;;;;;34.93;23.27;;;;;;;;;;6175672;28;20234;-71
2022/03/15 00:49:16;;;;;;;49.93;27.10;;;;;;;;;;6180595;28;20514;-71
2022/03/15 00:52:39;;;;;;;54.27;26.80;;;;;;;;;;6178378;28;20238;-71
2022/03/15 00:56:00;;;;;;;65.70;25.50;;;;;;;;;;6162063;28;20253;-72
2022/03/15 00:59:21;;;;;;;69.27;28.77;;;;;;;;;;6175286;28;20234;-71
2022/03/15 01:02:42;;;;;;;40.13;27.27;;;;;;;;;;6173012;28;20230;-70
2022/03/15 01:06:03;;;;;;;78.53;30.67;;;;;;;;;;6176589;28;20261;-71
2022/03/15 01:09:25;;;;;;;72.27;29.43;;;;;;;;;;6165493;28;20234;-70
2022/03/15 01:12:46;;;;;;;34.97;26.57;;;;;;;;;;6162574;28;20611;-71
2022/03/15 01:16:06;;;;;;;49.57;30.40;;;;;;;;;;6173158;28;20743;-70
2022/03/15 01:19:27;;;;;;;50.67;30.03;;;;;;;;;;6160489;28;20571;-71
2022/03/15 01:22:48;;;;;;;46.63;28.63;;;;;;;;;;6180044;28;20234;-71
2022/03/15 01:26:11;;;;;;;35.67;28.07;;;;;;;;;;6174781;28;20509;-72
2022/03/15 01:29:31;;;;;;;41.77;30.27;;;;;;;;;;6160850;28;20333;-71
2022/03/15 01:32:54;;;;;;;52.60;32.33;;;;;;;;;;6161151;28;20636;-71
2022/03/15 01:36:15;;;;;;;47.93;28.27;;;;;;;;;;6180574;28;20250;-70
2022/03/15 01:39:36;;;;;;;37.37;29.87;;;;;;;;;;6174655;28;20267;-71
2022/03/15 01:42:59;;;;;;;51.57;31.50;;;;;;;;;;6181323;28;20233;-71
2022/03/15 01:46:20;;;;;;;32.10;26.37;;;;;;;;;;6174766;28;20245;-71
2022/03/15 01:49:41;;;;;;;34.90;26.93;;;;;;;;;;6172224;28;20234;-71
2022/03/15 01:53:05;;;;;;;38.97;28.07;;;;;;;;;;6174550;28;20229;-71
2022/03/15 01:56:26;;;;;;;35.47;30.40;;;;;;;;;;6172392;28;20234;-70
2022/03/15 01:59:48;;;;;;;47.17;32.50;;;;;;;;;;6157473;28;20238;-70
2022/03/15 02:03:09;;;;;;;44.10;31.23;;;;;;;;;;6171881;28;20234;-69
2022/03/15 02:06:30;;;;;;;35.43;28.07;;;;;;;;;;6169825;28;20241;-70
2022/03/15 02:09:51;;;;;;;38.17;28.00;;;;;;;;;;6173683;28;20234;-71
2022/03/15 02:13:12;;;;;;;36.50;27.33;;;;;;;;;;6163117;28;20238;-72
2022/03/15 02:16:34;;;;;;;36.87;28.93;;;;;;;;;;6168553;28;20333;-71
2022/03/15 02:19:55;;;;;;;44.03;29.27;;;;;;;;;;6172536;28;20237;-71
2022/03/15 02:23:17;;;;;;;43.23;33.17;;;;;;;;;;6171507;28;20309;-71
2022/03/15 02:26:38;;;;;;;40.97;31.33;;;;;;;;;;6171296;28;20737;-69
2022/03/15 02:29:59;;;;;;;44.13;32.27;;;;;;;;;;6172252;28;20234;-71
2022/03/15 02:33:19;;;;;;;39.63;28.97;;;;;;;;;;6173459;28;20221;-71
2022/03/15 02:36:40;;;;;;;42.17;29.77;;;;;;;;;;6170776;28;20233;-71
2022/03/15 02:40:03;;;;;;;38.87;29.07;;;;;;;;;;6174352;28;20611;-71
2022/03/15 02:43:24;;;;;;;37.33;30.23;;;;;;;;;;6171883;28;20222;-71
2022/03/15 02:46:48;;;;;;;41.53;34.57;;;;;;;;;;6154370;28;20237;-70
2022/03/15 02:50:10;;;;;;;45.47;33.90;;;;;;;;;;6170134;28;20234;-71
2022/03/15 02:53:31;;;;;;;48.03;35.17;;;;;;;;;;6173822;28;20237;-70
2022/03/15 02:56:54;;;;;;;52.70;34.30;;;;;;;;;;6170816;28;20229;-70
2022/03/15 03:00:17;;;;;;;46.63;32.80;;;;;;;;;;6171310;28;20264;-71
2022/03/15 03:03:38;;;;;;;49.70;34.37;;;;;;;;;;6172914;28;20623;-70
2022/03/15 03:07:01;;;;;;;53.60;35.53;;;;;;;;;;6174989;28;20230;-70
2022/03/15 03:10:22;;;;;;;58.90;36.10;;;;;;;;;;6172088;28;20516;-70
2022/03/15 03:13:47;;;;;;;64.47;41.37;;;;;;;;;;6170248;28;20225;-70
2022/03/15 03:17:08;;;;;;;62.03;38.37;;;;;;;;;;6172505;28;20374;-70
2022/03/15 03:20:29;;;;;;;67.73;42.10;;;;;;;;;;6170948;28;20233;-70
2022/03/15 03:23:51;;;;;;;68.30;42.33;;;;;;;;;;6170149;28;20234;-70
2022/03/15 03:27:13;;;;;;;68.70;41.20;;;;;;;;;;6171243;28;20237;-70
2022/03/15 03:30:37;;;;;;;57.13;39.37;;;;;;;;;;6177304;28;20250;-71
2022/03/15 03:33:58;;;;;;;74.13;44.43;;;;;;;;;;6164860;28;20226;-70
2022/03/15 03:37:19;;;;;;;77.53;48.10;;;;;;;;;;6175771;28;20245;-70
2022/03/15 03:40:40;;;;;;;79.87;50.33;;;;;;;;;;6157810;28;20322;-70
2022/03/15 03:44:01;;;;;;;86.90;52.70;;;;;;;;;;6171493;28;20225;-71
2022/03/15 03:47:23;;;;;;;87.33;54.60;;;;;;;;;;6166977;28;20619;-70
2022/03/15 03:50:44;;;;;;;97.63;53.90;;;;;;;;;;6172611;28;20234;-71
2022/03/15 03:54:05;;;;;;;108.13;62.60;;;;;;;;;;6171225;28;20231;-70
2022/03/15 03:57:26;;;;;;;89.03;57.87;;;;;;;;;;6171181;28;20234;-71
2022/03/15 04:00:47;;;;;;;105.30;55.30;;;;;;;;;;6169543;28;20234;-71
2022/03/15 04:04:09;;;;;;;99.53;60.10;;;;;;;;;;6173719;28;20237;-71
2022/03/15 04:07:30;;;;;;;93.83;56.40;;;;;;;;;;6171055;28;20829;-71
2022/03/15 04:10:51;;;;;;;112.30;61.03;;;;;;;;;;6168295;28;20233;-71
2022/03/15 04:14:12;;;;;;;102.67;58.47;;;;;;;;;;6167036;28;20233;-71
2022/03/15 04:17:34;;;;;;;111.43;60.40;;;;;;;;;;6166694;28;20237;-70
2022/03/15 04:20:56;;;;;;;93.70;54.23;;;;;;;;;;6168707;28;20352;-71
2022/03/15 04:24:17;;;;;;;96.77;53.37;;;;;;;;;;6168935;28;20222;-71
2022/03/15 04:27:39;;;;;;;101.70;61.20;;;;;;;;;;6168507;28;20229;-70
2022/03/15 04:31:00;;;;;;;94.53;57.93;;;;;;;;;;6169211;28;20722;-70
2022/03/15 04:34:21;;;;;;;94.93;55.67;;;;;;;;;;6171966;28;20245;-70
2022/03/15 04:37:43;;;;;;;98.57;55.70;;;;;;;;;;6171055;28;20234;-69
2022/03/15 04:41:05;;;;;;;87.93;52.07;;;;;;;;;;6168385;28;20241;-70
2022/03/15 04:44:25;;;;;;;82.30;48.20;;;;;;;;;;6144802;28;20607;-70
2022/03/15 04:47:46;;;;;;;85.53;52.57;;;;;;;;;;6173012;28;20238;-71
2022/03/15 04:51:08;;;;;;;87.43;49.87;;;;;;;;;;6171822;28;20234;-71
2022/03/15 04:54:31;;;;;;;89.73;53.23;;;;;;;;;;6169316;28;20238;-71
2022/03/15 04:57:52;;;;;;;79.53;46.77;;;;;;;;;;6171215;28;20230;-71
2022/03/15 05:01:13;;;;;;;91.90;51.63;;;;;;;;;;6168662;28;20250;-71
2022/03/15 05:04:34;;;;;;;90.03;50.90;;;;;;;;;;6165036;28;20229;-71
2022/03/15 05:07:55;;;;;;;75.70;45.30;;;;;;;;;;6169797;28;20226;-71
2022/03/15 05:11:18;;;;;;;89.43;49.50;;;;;;;;;;6172385;28;20234;-70
2022/03/15 05:14:39;;;;;;;88.17;44.43;;;;;;;;;;6174591;28;20231;-72
2022/03/15 05:18:01;;;;;;;69.97;38.83;;;;;;;;;;6176674;28;20226;-71
2022/03/15 05:21:24;;;;;;;76.33;43.00;;;;;;;;;;6179674;28;20234;-71
2022/03/15 05:24:45;;;;;;;67.37;43.70;;;;;;;;;;6175908;28;20238;-70
2022/03/15 05:28:10;;;;;;;84.97;46.50;;;;;;;;;;6176562;28;20230;-70
2022/03/15 05:31:31;;;;;;;100.93;47.43;;;;;;;;;;6175387;28;20222;-70
2022/03/15 05:34:52;;;;;;;70.57;43.27;;;;;;;;;;6172429;28;20647;-71
2022/03/15 05:38:12;;;;;;;76.77;42.73;;;;;;;;;;6174052;28;20329;-70
2022/03/15 05:41:35;;;;;;;94.37;43.17;;;;;;;;;;6177987;28;20253;-70
2022/03/15 05:44:57;;;;;;;109.63;42.47;;;;;;;;;;6170037;28;20260;-71
2022/03/15 05:48:18;;;;;;;59.43;37.43;;;;;;;;;;6172407;28;20250;-70
2022/03/15 05:51:39;;;;;;;95.60;43.70;;;;;;;;;;6172373;28;20213;-71
2022/03/15 05:54:59;;;;;;;82.80;40.10;;;;;;;;;;6171568;28;20237;-70
2022/03/15 05:58:20;;;;;;;199.03;42.77;;;;;;;;;;6171824;28;20233;-70
2022/03/15 06:01:46;;;;;;;69.47;39.60;;;;;;;;;;6172801;28;20238;-71
2022/03/15 06:05:08;;;;;;;118.53;37.97;;;;;;;;;;6173800;28;20233;-70
2022/03/15 06:08:29;;;;;;;165.87;45.13;;;;;;;;;;6166396;28;20328;-70
2022/03/15 06:11:49;;;;;;;82.13;36.00;;;;;;;;;;6168204;28;20233;-70
2022/03/15 06:15:11;;;;;;;133.63;37.43;;;;;;;;;;6171106;28;20229;-70
2022/03/15 06:18:34;;;;;;;130.50;36.73;;;;;;;;;;6175524;28;20234;-71
2022/03/15 06:21:55;;;;;;;83.00;34.47;;;;;;;;;;6176201;28;20414;-71
2022/03/15 06:25:17;;;;;;;48.00;30.77;;;;;;;;;;6165461;28;20234;-69
2022/03/15 06:28:38;;;;;;;50.03;35.17;;;;;;;;;;6173852;28;20245;-69
2022/03/15 06:31:59;;;;;;;72.40;34.50;;;;;;;;;;6173692;28;20619;-69
2022/03/15 06:35:21;;;;;;;171.57;38.67;;;;;;;;;;6173219;28;20234;-70
2022/03/15 06:38:43;;;;;;;111.53;37.00;;;;;;;;;;6159654;28;20395;-70
2022/03/15 06:42:11;;;;;;;47.43;32.87;;;;;;;;;;6171782;28;20283;-70
2022/03/15 06:45:32;;;;;;;48.03;29.93;;;;;;;;;;6162852;28;20287;-69
2022/03/15 06:48:54;;;;;;;48.07;29.07;;;;;;;;;;6166621;28;20670;-68
2022/03/15 06:52:17;;;;;;;42.87;28.77;;;;;;;;;;6158258;28;20242;-70
2022/03/15 06:55:37;;;;;;;46.27;28.13;;;;;;;;;;6174772;28;20230;-69
2022/03/15 06:58:59;;;;;;;56.50;29.00;;;;;;;;;;6171740;28;20238;-69
2022/03/15 07:02:19;;;;;;;52.47;28.60;;;;;;;;;;6169879;28;20229;-69
2022/03/15 07:05:40;;;;;;;44.87;29.00;;;;;;;;;;6172898;28;20234;-69
2022/03/15 07:09:03;;;;;;;42.50;26.47;;;;;;;;;;6180826;28;20230;-70
2022/03/15 07:12:24;;;;;;;38.27;27.80;;;;;;;;;;6177275;28;20317;-70
2022/03/15 07:15:45;;;;;;;39.53;28.63;;;;;;;;;;6185594;28;20253;-71
2022/03/15 07:19:06;;;;;;;42.23;29.80;;;;;;;;;;6180166;28;20305;-68
2022/03/15 07:22:27;;;;;;;40.63;28.30;;;;;;;;;;6178286;28;20562;-69
2022/03/15 07:25:49;;;;;;;44.80;31.80;;;;;;;;;;6173943;28;20233;-69
2022/03/15 07:29:10;;;;;;;46.40;33.47;;;;;;;;;;6181285;28;20234;-69
2022/03/15 07:32:31;;;;;;;40.37;30.50;;;;;;;;;;6175901;28;20514;-69
2022/03/15 07:35:52;;;;;;;41.90;31.20;;;;;;;;;;6181485;28;20237;-71
2022/03/15 07:39:13;;;;;;;41.07;32.63;;;;;;;;;;6173284;28;20234;-69
2022/03/15 07:42:35;;;;;;;52.10;35.83;;;;;;;;;;6162322;28;20226;-69
2022/03/15 07:45:55;;;;;;;57.13;39.90;;;;;;;;;;6173059;28;20233;-69
2022/03/15 07:49:17;;;;;;;73.47;41.27;;;;;;;;;;6175818;28;20234;-69
2022/03/15 07:52:38;;;;;;;52.93;36.60;;;;;;;;;;6177814;28;20217;-69
2022/03/15 07:56:00;;;;;;;57.83;40.53;;;;;;;;;;6178179;28;20229;-69
2022/03/15 07:59:23;;;;;;;70.53;40.70;;;;;;;;;;6186959;28;20321;-68
2022/03/15 08:02:44;;;;;;;49.73;39.30;;;;;;;;;;6185899;28;20226;-69
2022/03/15 08:06:05;;;;;;;51.07;44.10;;;;;;;;;;6180644;28;20640;-70
2022/03/15 08:09:26;;;;;;;47.37;37.63;;;;;;;;;;6189410;28;20233;-70
2022/03/15 08:12:47;;;;;;;56.53;42.23;;;;;;;;;;6189205;28;20356;-71
2022/03/15 08:16:09;;;;;;;54.73;41.20;;;;;;;;;;6184915;28;20603;-69
2022/03/15 08:19:30;;;;;;;52.17;40.47;;;;;;;;;;6182050;28;20967;-70
2022/03/15 08:22:51;;;;;;;50.60;39.60;;;;;;;;;;6183056;28;20669;-69
2022/03/15 08:26:14;;;;;;;46.30;35.53;;;;;;;;;;6178514;28;20595;-68
2022/03/15 08:29:35;;;;;;;38.83;34.40;;;;;;;;;;6180983;28;20229;-70
2022/03/15 08:32:57;;;;;;;41.43;35.10;;;;;;;;;;6186461;28;20256;-69
2022/03/15 08:36:18;;;;;;;42.57;36.50;;;;;;;;;;6185840;28;20503;-69
2022/03/15 08:39:40;;;;;;;43.93;36.03;;;;;;;;;;6184612;28;20222;-70
2022/03/15 08:43:01;;;;;;;47.90;37.97;;;;;;;;;;6180935;28;20583;-71
2022/03/15 08:46:21;;;;;;;51.60;39.33;;;;;;;;;;6182710;28;20233;-71
2022/03/15 08:49:44;;;;;;;45.13;37.57;;;;;;;;;;6172886;28;20781;-70
2022/03/15 08:53:05;;;;;;;45.63;37.20;;;;;;;;;;6184090;28;20226;-71
2022/03/15 08:56:26;;;;;;;46.57;38.03;;;;;;;;;;6192805;28;20650;-70
2022/03/15 08:59:47;;;;;;;47.73;40.33;;;;;;;;;;6189447;28;20299;-70
2022/03/15 09:03:07;;;;;;;46.13;40.60;;;;;;;;;;6182281;28;20241;-69
2022/03/15 09:06:31;;;;;;;48.27;37.77;;;;;;;;;;6189244;28;20511;-69
2022/03/15 09:09:52;;;;;;;45.93;38.90;;;;;;;;;;6183028;28;20659;-69
2022/03/15 09:13:13;;;;;;;40.40;35.57;;;;;;;;;;6183702;28;20631;-69
2022/03/15 09:16:34;;;;;;;40.30;35.13;;;;;;;;;;6190412;28;20234;-72
2022/03/15 09:19:55;;;;;;;43.67;37.53;;;;;;;;;;6188929;28;20226;-71
2022/03/15 09:23:18;;;;;;;42.03;36.47;;;;;;;;;;6186613;28;20230;-71
2022/03/15 09:26:42;;;;;;;42.20;37.67;;;;;;;;;;6182597;28;20234;-72
2022/03/15 09:30:04;;;;;;;43.60;36.53;;;;;;;;;;6186014;28;20545;-70
2022/03/15 09:33:25;;;;;;;36.93;32.97;;;;;;;;;;6173269;28;20238;-70
2022/03/15 09:36:46;;;;;;;33.43;29.70;;;;;;;;;;6182098;28;20222;-71
2022/03/15 09:40:11;;;;;;;31.03;27.20;;;;;;;;;;6180648;28;20631;-71
2022/03/15 09:43:36;;;;;;;30.70;26.07;;;;;;;;;;6185670;28;20225;-72
2022/03/15 09:47:05;;;;;;;30.43;27.30;;;;;;;;;;6188008;28;20265;-71
2022/03/15 09:50:27;;;;;;;27.37;24.43;;;;;;;;;;6196314;28;20233;-70
2022/03/15 09:53:49;;;;;;;26.20;22.73;;;;;;;;;;6175262;28;20237;-72
2022/03/15 09:57:16;;;;;;;26.53;23.87;;;;;;;;;;6180665;28;20227;-74
2022/03/15 10:00:37;;;;;;;24.93;22.37;;;;;;;;;;6174243;28;20279;-72
2022/03/15 10:03:57;;;;;;;21.33;19.00;;;;;;;;;;6185774;28;20230;-73
2022/03/15 10:07:18;;;;;;;21.60;19.40;;;;;;;;;;6191144;28;20241;-72
2022/03/15 10:10:41;;;;;;;21.50;19.33;;;;;;;;;;6175990;28;20675;-71
2022/03/15 10:14:05;;;;;;;20.33;18.33;;;;;;;;;;6176262;28;20233;-73
2022/03/15 10:17:25;;;;;;;20.50;18.37;;;;;;;;;;6180986;28;20237;-72
2022/03/15 10:20:47;;;;;;;17.40;15.37;;;;;;;;;;6187075;28;20530;-70
2022/03/15 10:24:08;;;;;;;20.00;15.53;;;;;;;;;;6181732;28;20604;-74
2022/03/15 10:27:35;;;;;;;17.30;15.67;;;;;;;;;;6180727;28;20253;-69
2022/03/15 10:30:59;;;;;;;17.07;15.37;;;;;;;;;;6187674;28;20233;-71
2022/03/15 10:34:21;;;;;;;19.73;16.70;;;;;;;;;;6180062;28;20238;-70
2022/03/15 10:37:42;;;;;;;18.70;14.50;;;;;;;;;;6186172;28;20502;-72
2022/03/15 10:41:03;;;;;;;19.97;17.10;;;;;;;;;;6183386;28;20510;-73
2022/03/15 10:44:26;;;;;;;21.13;15.80;;;;;;;;;;6186165;28;20225;-71
2022/03/15 10:47:50;;;;;;;19.57;17.47;;;;;;;;;;6181197;28;20226;-71
2022/03/15 10:51:14;;;;;;;19.90;17.90;;;;;;;;;;6179206;28;20233;-72
2022/03/15 10:54:35;;;;;;;22.47;16.17;;;;;;;;;;6180267;28;20240;-71
2022/03/15 10:57:58;;;;;;;20.50;14.40;;;;;;;;;;6184522;28;20324;-73
2022/03/15 11:01:19;;;;;;;18.30;13.73;;;;;;;;;;6182434;28;20325;-74
2022/03/15 11:04:49;;;;;;;14.90;12.43;;;;;;;;;;6170818;28;20252;-70
2022/03/15 11:08:12;;;;;;;15.57;13.00;;;;;;;;;;6158606;28;20237;-69
2022/03/15 11:11:36;;;;;;;20.07;14.80;;;;;;;;;;6182024;28;20226;-69
2022/03/15 11:14:59;;;;;;;13.70;12.30;;;;;;;;;;6176142;28;20649;-69
2022/03/15 11:18:20;;;;;;;15.10;12.77;;;;;;;;;;6180529;28;21289;-69
2022/03/15 11:21:44;;;;;;;17.27;13.50;;;;;;;;;;6185540;28;20937;-70
2022/03/15 11:25:08;;;;;;;16.63;14.13;;;;;;;;;;6182803;28;20604;-69
2022/03/15 11:28:31;;;;;;;17.97;14.37;;;;;;;;;;6185829;28;20318;-69
2022/03/15 11:31:53;;;;;;;19.57;15.60;;;;;;;;;;6179040;28;20261;-70
2022/03/15 11:35:18;;;;;;;22.87;17.73;;;;;;;;;;6177737;28;20227;-69
2022/03/15 11:38:42;;;;;;;17.30;15.57;;;;;;;;;;6177508;28;21080;-70
2022/03/15 11:42:03;;;;;;;16.17;14.43;;;;;;;;;;6174127;28;20237;-69
2022/03/15 11:45:26;;;;;;;20.37;15.87;;;;;;;;;;6173553;28;20324;-70
2022/03/15 11:48:54;;;;;;;18.80;15.20;;;;;;;;;;6185081;28;20320;-68
2022/03/15 11:52:24;;;;;;;16.80;15.07;;;;;;;;;;6177182;28;20672;-68
2022/03/15 11:55:51;;;;;;;23.97;15.27;;;;;;;;;;6173778;28;20571;-71
2022/03/15 11:59:12;;;;;;;16.23;14.43;;;;;;;;;;6171939;28;20257;-72
2022/03/15 12:02:38;;;;;;;15.70;14.17;;;;;;;;;;6178300;28;20257;-70
2022/03/15 12:05:59;;;;;;;17.77;14.20;;;;;;;;;;6175991;28;20229;-72
2022/03/15 12:09:21;;;;;;;15.27;13.57;;;;;;;;;;6178625;28;20226;-73
2022/03/15 12:12:44;;;;;;;18.17;14.63;;;;;;;;;;6182766;28;20324;-72
2022/03/15 12:16:13;;;;;;;19.70;15.43;;;;;;;;;;6182465;28;20609;-74
2022/03/15 12:19:45;;;;;;;18.33;13.17;;;;;;;;;;6181458;28;20234;-71
2022/03/15 12:23:07;;;;;;;15.30;13.47;;;;;;;;;;6176684;28;20631;-73
2022/03/15 12:26:29;;;;;;;18.47;14.33;;;;;;;;;;6185539;28;20249;-71
2022/03/15 12:29:55;;;;;;;17.27;13.87;;;;;;;;;;6178561;28;20777;-70
2022/03/15 12:33:25;;;;;;;17.30;13.50;;;;;;;;;;6174595;28;20238;-73
2022/03/15 12:36:49;;;;;;;15.20;13.30;;;;;;;;;;6185947;28;20233;-72
2022/03/15 12:40:12;;;;;;;20.27;13.33;;;;;;;;;;6172684;28;20226;-71
2022/03/15 12:43:34;;;;;;;15.60;13.47;;;;;;;;;;6177864;28;20230;-71
2022/03/15 12:46:56;;;;;;;13.57;12.17;;;;;;;;;;6180497;28;20626;-70
2022/03/15 12:50:21;;;;;;;19.90;13.90;;;;;;;;;;6177654;28;20242;-70
2022/03/15 12:53:48;;;;;;;18.43;14.90;;;;;;;;;;6185497;28;20249;-75
2022/03/15 12:57:11;;;;;;;14.87;13.37;;;;;;;;;;6171835;28;20238;-74
2022/03/15 13:00:33;;;;;;;13.53;12.17;;;;;;;;;;6189519;28;20631;-71
2022/03/15 13:03:55;;;;;;;16.80;13.90;;;;;;;;;;6186751;28;20592;-74
2022/03/15 13:07:28;;;;;;;15.47;13.87;;;;;;;;;;6185222;28;20234;-70
2022/03/15 13:10:50;;;;;;;18.17;14.00;;;;;;;;;;6185136;28;20249;-70
2022/03/15 13:14:11;;;;;;;16.13;11.67;;;;;;;;;;6178980;28;20226;-74
2022/03/15 13:17:31;;;;;;;16.00;11.17;;;;;;;;;;6183320;28;20325;-73
2022/03/15 13:21:00;;;;;;;15.90;12.67;;;;;;;;;;6178321;28;20266;-71
2022/03/15 13:24:23;;;;;;;14.87;11.93;;;;;;;;;;6182059;28;20593;-71
2022/03/15 13:27:47;;;;;;;17.33;11.37;;;;;;;;;;6182687;28;20238;-75
2022/03/15 13:31:09;;;;;;;20.30;12.03;;;;;;;;;;6190336;28;20242;-73
2022/03/15 13:34:31;;;;;;;30.30;26.43;;;;;;;;;;6193589;28;20600;-76
2022/03/15 13:37:53;;;;;;;15.70;13.33;;;;;;;;;;6189705;28;20823;-70
2022/03/15 13:41:16;;;;;;;16.63;12.03;;;;;;;;;;6189919;28;20840;-72
2022/03/15 13:44:38;;;;;;;16.33;11.60;;;;;;;;;;6181272;28;20238;-69
2022/03/15 13:48:00;;;;;;;16.27;11.57;;;;;;;;;;6178485;28;22569;-73
2022/03/15 13:51:26;;;;;;;15.83;12.20;;;;;;;;;;6181661;28;20242;-74
2022/03/15 13:54:51;;;;;;;21.63;14.63;;;;;;;;;;6188690;28;20247;-72
2022/03/15 13:58:12;;;;;;;21.73;16.50;;;;;;;;;;6181558;28;20599;-72
2022/03/15 14:01:34;;;;;;;20.03;15.00;;;;;;;;;;6185613;28;20223;-71
2022/03/15 14:05:02;;;;;;;23.97;17.17;;;;;;;;;;6189804;28;20226;-73
2022/03/15 14:08:23;;;;;;;21.93;17.10;;;;;;;;;;6178124;28;20439;-72
2022/03/15 14:11:46;;;;;;;24.80;17.50;;;;;;;;;;6183707;28;20231;-71
2022/03/15 14:15:10;;;;;;;19.50;17.17;;;;;;;;;;6183680;28;20230;-72
2022/03/15 14:18:30;;;;;;;21.70;16.73;;;;;;;;;;6185112;28;20226;-71
2022/03/15 14:22:05;;;;;;;24.40;19.70;;;;;;;;;;6183208;28;21368;-70
2022/03/15 14:25:27;;;;;;;19.73;14.90;;;;;;;;;;6180892;28;20246;-70
2022/03/15 14:28:55;;;;;;;18.73;15.77;;;;;;;;;;6167187;28;20257;-71
2022/03/15 14:32:16;;;;;;;20.93;16.47;;;;;;;;;;6186465;28;20253;-71
2022/03/15 14:35:40;;;;;;;24.27;15.27;;;;;;;;;;6187805;28;20312;-71
2022/03/15 14:39:10;;;;;;;19.97;16.93;;;;;;;;;;6189238;28;20312;-70
2022/03/15 14:42:32;;;;;;;24.27;17.57;;;;;;;;;;6183818;28;20221;-70
2022/03/15 14:45:54;;;;;;;18.67;16.27;;;;;;;;;;6181411;28;20229;-71
2022/03/15 14:49:18;;;;;;;23.60;17.90;;;;;;;;;;6180595;28;20317;-70
2022/03/15 14:52:39;;;;;;;19.37;15.80;;;;;;;;;;6176823;28;20320;-71
2022/03/15 14:56:00;;;;;;;20.10;16.47;;;;;;;;;;6168044;28;20265;-71
2022/03/15 14:59:21;;;;;;;19.03;14.60;;;;;;;;;;6182262;28;20316;-71
2022/03/15 15:02:44;;;;;;;17.83;15.93;;;;;;;;;;6172332;28;22715;-71
2022/03/15 15:06:07;;;;;;;17.97;16.07;;;;;;;;;;6185748;28;20520;-71
2022/03/15 15:09:29;;;;;;;22.00;15.27;;;;;;;;;;6180556;28;20233;-71
2022/03/15 15:12:50;;;;;;;18.17;15.33;;;;;;;;;;6179718;28;20237;-70
2022/03/15 15:16:11;;;;;;;21.13;15.27;;;;;;;;;;6179240;28;20233;-70
2022/03/15 15:19:39;;;;;;;19.93;16.53;;;;;;;;;;6183591;28;20252;-71
2022/03/15 15:23:00;;;;;;;17.87;13.33;;;;;;;;;;6181323;28;20222;-70
2022/03/15 15:26:22;;;;;;;16.70;14.57;;;;;;;;;;6181434;28;20236;-71
2022/03/15 15:29:44;;;;;;;18.53;13.37;;;;;;;;;;6180247;28;20227;-69
2022/03/15 15:33:08;;;;;;;19.97;15.43;;;;;;;;;;6175165;28;20349;-72
2022/03/15 15:36:30;;;;;;;18.70;13.83;;;;;;;;;;6187319;28;20581;-71
2022/03/15 15:39:51;;;;;;;16.27;14.57;;;;;;;;;;6186825;28;20234;-72
2022/03/15 15:43:13;;;;;;;17.30;15.37;;;;;;;;;;6179694;28;20234;-72
2022/03/15 15:46:35;;;;;;;22.90;15.33;;;;;;;;;;6189376;28;20238;-71
2022/03/15 15:49:57;;;;;;;15.57;13.17;;;;;;;;;;6184912;28;20238;-71
2022/03/15 15:53:24;;;;;;;21.00;16.83;;;;;;;;;;6194697;28;20238;-72
2022/03/15 15:56:48;;;;;;;20.73;16.27;;;;;;;;;;6189183;28;20234;-72
2022/03/15 16:00:11;;;;;;;21.90;16.43;;;;;;;;;;6186668;28;20229;-72
2022/03/15 16:03:35;;;;;;;23.67;17.10;;;;;;;;;;6183881;28;20514;-71
2022/03/15 16:06:55;;;;;;;18.33;16.30;;;;;;;;;;6181083;28;20229;-71
2022/03/15 16:10:20;;;;;;;15.60;13.40;;;;;;;;;;6177580;28;20321;-71
2022/03/15 16:13:41;;;;;;;16.60;14.30;;;;;;;;;;6173240;28;20234;-72
2022/03/15 16:17:01;;;;;;;18.73;15.20;;;;;;;;;;6175947;28;21017;-72
2022/03/15 16:20:24;;;;;;;15.97;12.90;;;;;;;;;;6178656;28;20225;-72
2022/03/15 16:23:50;;;;;;;17.77;12.67;;;;;;;;;;6181121;28;20362;-71
2022/03/15 16:27:12;;;;;;;15.83;12.03;;;;;;;;;;6179463;28;20229;-71
2022/03/15 16:30:35;;;;;;;18.60;14.13;;;;;;;;;;6179580;28;20686;-73
2022/03/15 16:33:57;;;;;;;17.70;13.57;;;;;;;;;;6184784;28;20753;-73
2022/03/15 16:37:19;;;;;;;16.43;11.83;;;;;;;;;;6185378;28;20241;-72
2022/03/15 16:40:41;;;;;;;15.33;10.17;;;;;;;;;;6187121;28;20234;-74
2022/03/15 16:44:05;;;;;;;13.30;11.80;;;;;;;;;;6185212;28;20320;-74
2022/03/15 16:47:26;;;;;;;14.33;11.40;;;;;;;;;;6178016;28;20242;-72
2022/03/15 16:50:49;;;;;;;14.50;13.00;;;;;;;;;;6180839;28;20612;-71
2022/03/15 16:54:10;;;;;;;13.97;12.33;;;;;;;;;;6158926;28;20230;-71
2022/03/15 16:57:31;;;;;;;15.47;12.73;;;;;;;;;;6178797;28;20249;-72
2022/03/15 17:00:53;;;;;;;15.93;13.27;;;;;;;;;;6174335;28;20230;-72
2022/03/15 17:07:55;;;;;;;19.67;15.03;;;;;;;;;;6176509;28;20324;-73
2022/03/15 17:11:24;;;;;;;21.50;15.03;;;;;;;;;;6180344;28;20237;-72
2022/03/15 17:14:45;;;;;;;19.77;16.33;;;;;;;;;;6186599;28;20431;-72
2022/03/15 17:18:07;;;;;;;23.93;17.03;;;;;;;;;;6178607;28;20230;-72
2022/03/15 17:21:29;;;;;;;18.60;14.03;;;;;;;;;;6190084;28;20230;-72
2022/03/15 17:24:54;;;;;;;19.97;15.77;;;;;;;;;;6184108;28;20222;-73
2022/03/15 17:28:15;;;;;;;25.23;18.73;;;;;;;;;;6188873;28;20313;-73
2022/03/15 17:31:37;;;;;;;22.10;15.47;;;;;;;;;;6188548;28;20547;-73
2022/03/15 17:35:03;;;;;;;21.33;16.23;;;;;;;;;;6195446;28;20225;-73
2022/03/15 17:38:24;;;;;;;21.93;17.13;;;;;;;;;;6187038;28;20234;-73
2022/03/15 17:41:53;;;;;;;22.27;16.83;;;;;;;;;;6185875;28;20274;-72
2022/03/15 17:45:16;;;;;;;25.73;23.03;;;;;;;;;;6192752;28;20226;-71
2022/03/15 17:48:39;;;;;;;24.03;19.50;;;;;;;;;;6187183;28;20230;-73
2022/03/15 17:52:01;;;;;;;24.40;20.60;;;;;;;;;;6188504;28;20229;-73
2022/03/15 17:55:25;;;;;;;41.93;37.43;;;;;;;;;;6194300;28;20233;-72
2022/03/15 17:58:48;;;;;;;27.70;24.80;;;;;;;;;;6184767;28;20585;-72
2022/03/15 18:02:11;;;;;;;20.07;16.17;;;;;;;;;;6177869;28;20230;-72
2022/03/15 18:05:32;;;;;;;19.77;14.57;;;;;;;;;;6185922;28;20603;-72
2022/03/15 18:08:54;;;;;;;20.93;16.47;;;;;;;;;;6183738;28;20261;-71
2022/03/15 18:12:17;;;;;;;21.10;15.73;;;;;;;;;;6181000;28;20234;-72
2022/03/15 18:15:38;;;;;;;22.93;15.10;;;;;;;;;;6178095;28;20353;-72
2022/03/15 18:19:00;;;;;;;19.43;14.80;;;;;;;;;;6165093;28;20233;-72
2022/03/15 18:22:21;;;;;;;17.40;15.33;;;;;;;;;;6189148;28;20237;-72
2022/03/15 18:25:45;;;;;;;23.13;14.60;;;;;;;;;;6169939;28;20533;-73
2022/03/15 18:29:07;;;;;;;23.67;15.97;;;;;;;;;;6184847;28;20237;-73
2022/03/15 18:32:29;;;;;;;25.90;18.03;;;;;;;;;;6185812;28;20235;-73
2022/03/15 18:35:51;;;;;;;19.60;15.13;;;;;;;;;;6177315;28;20234;-73
2022/03/15 18:39:13;;;;;;;19.70;16.10;;;;;;;;;;6180851;28;20234;-73
2022/03/15 18:42:36;;;;;;;20.80;16.73;;;;;;;;;;6183047;28;20508;-72
2022/03/15 18:45:59;;;;;;;17.70;15.77;;;;;;;;;;6183670;28;20324;-72
2022/03/15 18:49:20;;;;;;;19.43;17.43;;;;;;;;;;6180924;28;20230;-73
2022/03/15 18:52:40;;;;;;;17.40;14.83;;;;;;;;;;6187209;28;21058;-72
2022/03/15 18:56:03;;;;;;;26.17;18.33;;;;;;;;;;6178260;28;20241;-72
2022/03/15 18:59:25;;;;;;;22.07;16.83;;;;;;;;;;6190631;28;20225;-74
2022/03/15 19:02:46;;;;;;;21.90;16.37;;;;;;;;;;6192062;28;20674;-73
2022/03/15 19:06:08;;;;;;;19.73;16.00;;;;;;;;;;6185363;28;20619;-72
2022/03/15 19:09:29;;;;;;;21.13;15.13;;;;;;;;;;6185256;28;20432;-72
2022/03/15 19:12:52;;;;;;;22.30;17.50;;;;;;;;;;6185555;28;20234;-72
2022/03/15 19:16:16;;;;;;;20.27;15.53;;;;;;;;;;6177725;28;20242;-72
2022/03/15 19:19:37;;;;;;;23.23;16.43;;;;;;;;;;6186348;28;20868;-72
2022/03/15 19:22:59;;;;;;;18.47;14.33;;;;;;;;;;6169855;28;20233;-72
2022/03/15 19:26:22;;;;;;;18.77;13.73;;;;;;;;;;6180306;28;20225;-72
2022/03/15 19:29:44;;;;;;;24.50;17.03;;;;;;;;;;6180854;28;20231;-72
2022/03/15 19:33:06;;;;;;;25.70;17.23;;;;;;;;;;6191103;28;20234;-72
2022/03/15 19:36:27;;;;;;;19.33;15.67;;;;;;;;;;6186858;28;20320;-72
2022/03/15 19:39:48;;;;;;;25.50;16.47;;;;;;;;;;6183274;28;20226;-72